Time;durP1;ratioP1;P1;durP2;ratioP2;P2;SDS_P1;SDS_P2;PMS_P1;PMS_P2;Temp;Humidity;BMP_temperature;BMP_pressure;BME280_temperature;BME280_humidity;BME280_pressure;Samples;Min_cycle;Max_cycle;Signal;HPM_P1;HPM_P2
2022/05/11 00:01:32;;;;;;;2.10;1.80;;;;;;;;;;4996398;28;20034;-73
2022/05/11 00:04:00;;;;;;;5.32;1.75;;;;;;;;;;5005431;28;20038;-73
2022/05/11 00:06:26;;;;;;;3.30;1.90;;;;;;;;;;5005003;28;20048;-72
2022/05/11 00:08:56;;;;;;;3.20;1.90;;;;;;;;;;5002905;28;20577;-73
2022/05/11 00:11:23;;;;;;;3.30;1.95;;;;;;;;;;5007546;28;20030;-73
2022/05/11 00:13:49;;;;;;;3.00;2.15;;;;;;;;;;5008262;28;20045;-73
2022/05/11 00:16:15;;;;;;;3.40;2.15;;;;;;;;;;5007408;28;20030;-72
2022/05/11 00:18:41;;;;;;;3.65;2.35;;;;;;;;;;5003905;28;20173;-73
2022/05/11 00:21:08;;;;;;;4.20;2.50;;;;;;;;;;5006887;28;20128;-72
2022/05/11 00:23:33;;;;;;;3.92;2.40;;;;;;;;;;5004840;28;20030;-72
2022/05/11 00:25:59;;;;;;;2.90;2.08;;;;;;;;;;5004784;28;20042;-72
2022/05/11 00:28:25;;;;;;;5.22;2.67;;;;;;;;;;5002438;28;20046;-72
2022/05/11 00:30:50;;;;;;;3.30;2.53;;;;;;;;;;5007018;28;20030;-72
2022/05/11 00:33:17;;;;;;;4.95;2.30;;;;;;;;;;5005170;28;20030;-72
2022/05/11 00:35:45;;;;;;;3.85;2.40;;;;;;;;;;5004734;28;20033;-72
2022/05/11 00:38:11;;;;;;;6.88;2.40;;;;;;;;;;5001962;28;20152;-72
2022/05/11 00:40:46;;;;;;;5.13;2.38;;;;;;;;;;5021786;28;20034;-72
2022/05/11 00:43:12;;;;;;;5.20;2.10;;;;;;;;;;5000506;28;20034;-72
2022/05/11 00:45:45;;;;;;;4.80;2.45;;;;;;;;;;5006783;28;20091;-73
2022/05/11 00:51:00;;;;;;;2.50;2.05;;;;;;;;;;5006833;28;20037;-73
2022/05/11 00:53:26;;;;;;;3.83;2.10;;;;;;;;;;5004385;28;20025;-72
2022/05/11 00:55:55;;;;;;;3.65;2.22;;;;;;;;;;5000821;28;20057;-72
2022/05/11 00:58:26;;;;;;;3.25;2.28;;;;;;;;;;4998447;28;20459;-72
2022/05/11 01:00:51;;;;;;;3.20;1.92;;;;;;;;;;5005050;28;20042;-72
2022/05/11 01:03:23;;;;;;;3.83;2.10;;;;;;;;;;5000910;28;20041;-72
2022/05/11 01:05:49;;;;;;;2.63;1.90;;;;;;;;;;5001702;28;20462;-72
2022/05/11 01:08:18;;;;;;;3.55;2.22;;;;;;;;;;5003816;28;20483;-73
2022/05/11 01:10:44;;;;;;;4.25;2.15;;;;;;;;;;5007539;28;20041;-72
2022/05/11 01:13:13;;;;;;;3.83;2.08;;;;;;;;;;5007574;28;20115;-74
2022/05/11 01:15:40;;;;;;;3.83;2.08;;;;;;;;;;5007832;28;20096;-72
2022/05/11 01:18:08;;;;;;;2.17;1.98;;;;;;;;;;4997791;28;20078;-73
2022/05/11 01:20:36;;;;;;;3.92;2.15;;;;;;;;;;5002979;28;20084;-72
2022/05/11 01:23:13;;;;;;;4.07;2.00;;;;;;;;;;5004884;28;20037;-73
2022/05/11 01:25:38;;;;;;;5.28;2.40;;;;;;;;;;5004513;28;20542;-72
2022/05/11 01:28:11;;;;;;;3.40;2.00;;;;;;;;;;5009324;28;20045;-73
2022/05/11 01:30:39;;;;;;;2.70;2.00;;;;;;;;;;5009739;28;20607;-72
2022/05/11 01:33:06;;;;;;;3.58;2.28;;;;;;;;;;5004295;28;20034;-72
2022/05/11 01:35:46;;;;;;;3.90;2.10;;;;;;;;;;5007771;28;20065;-72
2022/05/11 01:38:29;;;;;;;4.07;2.00;;;;;;;;;;5008752;28;20072;-72
2022/05/11 01:40:55;;;;;;;;;;;;;;;;;;5010617;28;20404;-72
2022/05/11 01:43:24;;;;;;;4.03;2.20;;;;;;;;;;5009905;28;20405;-73
2022/05/11 01:45:50;;;;;;;3.38;2.13;;;;;;;;;;5011213;28;20045;-73
2022/05/11 01:48:16;;;;;;;3.13;2.00;;;;;;;;;;5010095;28;20026;-73
2022/05/11 01:50:42;;;;;;;3.35;2.13;;;;;;;;;;5008205;28;20038;-72
2022/05/11 01:53:08;;;;;;;5.10;2.30;;;;;;;;;;5002864;28;20041;-72
2022/05/11 01:55:33;;;;;;;5.13;2.42;;;;;;;;;;5009189;28;20117;-72
2022/05/11 01:57:59;;;;;;;3.05;2.28;;;;;;;;;;5002598;28;20026;-72
2022/05/11 02:00:25;;;;;;;3.15;2.10;;;;;;;;;;5008670;28;20054;-73
2022/05/11 02:02:51;;;;;;;4.95;2.28;;;;;;;;;;5004611;28;20030;-72
2022/05/11 02:08:01;;;;;;;4.35;2.17;;;;;;;;;;5009416;28;20511;-72
2022/05/11 02:10:27;;;;;;;8.70;2.60;;;;;;;;;;5009295;28;20129;-72
2022/05/11 02:12:52;;;;;;;3.58;2.13;;;;;;;;;;5007576;28;20384;-72
2022/05/11 02:15:19;;;;;;;5.53;2.10;;;;;;;;;;5008170;28;20045;-73
2022/05/11 02:17:48;;;;;;;4.07;2.13;;;;;;;;;;4992216;28;20076;-72
2022/05/11 02:20:16;;;;;;;3.55;2.30;;;;;;;;;;5004526;28;20025;-72
2022/05/11 02:22:42;;;;;;;6.18;2.78;;;;;;;;;;5008626;28;20034;-72
2022/05/11 02:25:08;;;;;;;3.55;2.15;;;;;;;;;;5007931;28;20037;-72
2022/05/11 02:27:33;;;;;;;3.42;2.20;;;;;;;;;;5004235;28;20069;-72
2022/05/11 02:29:59;;;;;;;4.57;2.67;;;;;;;;;;5009108;28;20063;-72
2022/05/11 02:32:25;;;;;;;3.65;2.40;;;;;;;;;;4999213;28;20407;-72
2022/05/11 02:37:35;;;;;;;3.65;2.33;;;;;;;;;;5008844;28;20053;-72
2022/05/11 02:40:00;;;;;;;4.10;2.30;;;;;;;;;;5007754;28;20042;-72
2022/05/11 02:42:26;;;;;;;7.53;2.30;;;;;;;;;;5007811;28;20057;-72
2022/05/11 02:44:52;;;;;;;5.03;2.45;;;;;;;;;;4998447;28;20077;-73
2022/05/11 02:47:18;;;;;;;7.43;2.47;;;;;;;;;;5008043;28;20018;-72
2022/05/11 02:49:45;;;;;;;3.47;2.30;;;;;;;;;;5008315;28;20422;-72
2022/05/11 02:52:14;;;;;;;3.13;2.40;;;;;;;;;;5008461;28;20072;-72
2022/05/11 02:54:39;;;;;;;5.15;2.08;;;;;;;;;;5004997;28;20128;-72
2022/05/11 02:57:05;;;;;;;4.57;2.38;;;;;;;;;;5008856;28;20507;-72
2022/05/11 02:59:30;;;;;;;2.85;2.35;;;;;;;;;;5007761;28;20056;-72
2022/05/11 03:01:56;;;;;;;3.90;2.45;;;;;;;;;;5005954;28;20100;-72
2022/05/11 03:04:22;;;;;;;3.67;2.40;;;;;;;;;;5002213;28;20470;-72
2022/05/11 03:06:47;;;;;;;5.22;2.40;;;;;;;;;;5008037;28;20037;-72
2022/05/11 03:09:17;;;;;;;5.00;2.60;;;;;;;;;;5001697;28;20038;-72
2022/05/11 03:11:44;;;;;;;3.90;2.30;;;;;;;;;;5006948;28;20041;-72
2022/05/11 03:14:10;;;;;;;5.78;3.20;;;;;;;;;;5008509;28;20121;-72
2022/05/11 03:16:37;;;;;;;3.85;2.30;;;;;;;;;;5005291;28;20045;-72
2022/05/11 03:19:03;;;;;;;4.13;2.22;;;;;;;;;;5005496;28;20132;-72
2022/05/11 03:21:29;;;;;;;2.95;2.08;;;;;;;;;;5001791;28;20034;-72
2022/05/11 03:23:55;;;;;;;4.60;2.63;;;;;;;;;;5008111;28;20033;-73
2022/05/11 03:26:21;;;;;;;3.60;2.30;;;;;;;;;;5005570;28;20034;-72
2022/05/11 03:28:46;;;;;;;11.13;2.70;;;;;;;;;;5007156;28;20045;-72
2022/05/11 03:31:12;;;;;;;7.50;2.70;;;;;;;;;;5002348;28;20100;-72
2022/05/11 03:36:21;;;;;;;4.07;2.60;;;;;;;;;;5007890;28;20542;-72
2022/05/11 03:38:47;;;;;;;4.40;2.70;;;;;;;;;;5007106;28;20050;-72
2022/05/11 03:41:12;;;;;;;2.75;2.35;;;;;;;;;;5001431;28;20026;-72
2022/05/11 03:43:38;;;;;;;3.75;2.47;;;;;;;;;;5006612;28;20042;-72
2022/05/11 03:46:03;;;;;;;6.20;2.70;;;;;;;;;;5003542;28;20042;-72
2022/05/11 03:48:29;;;;;;;5.05;2.55;;;;;;;;;;5006103;28;20057;-72
2022/05/11 03:50:55;;;;;;;3.33;2.30;;;;;;;;;;5005831;28;20495;-72
2022/05/11 03:53:20;;;;;;;4.00;3.15;;;;;;;;;;5007963;28;20064;-72
2022/05/11 03:55:46;;;;;;;4.45;2.80;;;;;;;;;;5004296;28;20632;-72
2022/05/11 03:58:13;;;;;;;6.22;2.97;;;;;;;;;;5006070;28;20115;-72
2022/05/11 04:00:38;;;;;;;6.05;2.88;;;;;;;;;;5006525;28;20049;-72
2022/05/11 04:03:04;;;;;;;6.82;2.80;;;;;;;;;;5002664;28;20051;-72
2022/05/11 04:05:31;;;;;;;4.07;2.55;;;;;;;;;;4999786;28;20411;-72
2022/05/11 04:07:56;;;;;;;5.10;2.80;;;;;;;;;;5003288;28;20620;-72
2022/05/11 04:10:22;;;;;;;5.00;3.28;;;;;;;;;;5005219;28;20041;-72
2022/05/11 04:12:47;;;;;;;6.30;2.72;;;;;;;;;;5007268;28;20042;-72
2022/05/11 04:15:14;;;;;;;4.13;2.67;;;;;;;;;;5022539;28;20044;-72
2022/05/11 04:17:40;;;;;;;3.88;2.75;;;;;;;;;;5003842;28;20132;-72
2022/05/11 04:20:06;;;;;;;5.88;2.80;;;;;;;;;;5005352;28;20132;-72
2022/05/11 04:22:32;;;;;;;4.75;3.17;;;;;;;;;;5022071;28;20080;-72
2022/05/11 04:24:57;;;;;;;6.13;2.88;;;;;;;;;;5001765;28;20069;-72
2022/05/11 04:27:24;;;;;;;5.13;2.55;;;;;;;;;;5005581;28;20046;-72
2022/05/11 04:29:49;;;;;;;6.47;3.03;;;;;;;;;;5022356;28;20030;-72
2022/05/11 04:32:15;;;;;;;4.78;2.90;;;;;;;;;;5006595;28;20046;-72
2022/05/11 04:34:41;;;;;;;6.57;2.70;;;;;;;;;;4992088;28;20473;-72
2022/05/11 04:37:07;;;;;;;5.30;3.08;;;;;;;;;;5006361;28;20026;-72
2022/05/11 04:39:33;;;;;;;5.78;2.88;;;;;;;;;;5006092;28;20084;-72
2022/05/11 04:41:59;;;;;;;5.32;3.38;;;;;;;;;;5004005;28;20116;-72
2022/05/11 04:44:24;;;;;;;5.20;2.97;;;;;;;;;;5007466;28;20060;-72
2022/05/11 04:46:49;;;;;;;5.72;3.03;;;;;;;;;;5003810;28;20109;-73
2022/05/11 04:49:21;;;;;;;4.70;2.95;;;;;;;;;;4987776;28;20034;-73
2022/05/11 04:51:48;;;;;;;5.65;3.15;;;;;;;;;;5006109;28;20119;-72
2022/05/11 04:54:14;;;;;;;5.57;3.20;;;;;;;;;;5014482;28;20034;-73
2022/05/11 04:56:40;;;;;;;6.55;2.83;;;;;;;;;;5002851;28;20025;-72
2022/05/11 04:59:07;;;;;;;5.28;2.90;;;;;;;;;;4994263;28;20035;-72
2022/05/11 05:01:33;;;;;;;5.35;3.20;;;;;;;;;;5006401;28;20044;-72
2022/05/11 05:03:59;;;;;;;7.95;3.78;;;;;;;;;;5006552;28;20041;-77
2022/05/11 05:06:24;;;;;;;7.32;3.17;;;;;;;;;;4995196;28;20045;-72
2022/05/11 05:08:52;;;;;;;7.05;3.50;;;;;;;;;;4994163;28;20523;-72
2022/05/11 05:11:17;;;;;;;6.72;3.25;;;;;;;;;;4995758;28;20048;-72
2022/05/11 05:13:43;;;;;;;4.63;3.30;;;;;;;;;;4994894;28;20038;-71
2022/05/11 05:16:08;;;;;;;6.57;3.00;;;;;;;;;;4998429;28;20090;-72
2022/05/11 05:18:35;;;;;;;8.07;3.38;;;;;;;;;;4993739;28;20522;-71
2022/05/11 05:21:00;;;;;;;7.32;3.50;;;;;;;;;;4994123;28;20870;-69
2022/05/11 05:23:26;;;;;;;7.60;3.50;;;;;;;;;;4995483;28;20506;-70
2022/05/11 05:25:51;;;;;;;6.93;3.75;;;;;;;;;;4996585;28;20547;-72
2022/05/11 05:31:05;;;;;;;8.27;3.97;;;;;;;;;;4996042;28;20141;-72
2022/05/11 05:33:31;;;;;;;7.57;3.47;;;;;;;;;;4996576;28;20133;-72
2022/05/11 05:35:57;;;;;;;8.80;3.67;;;;;;;;;;4996460;28;20065;-72
2022/05/11 05:38:23;;;;;;;6.47;3.45;;;;;;;;;;4996129;28;20034;-72
2022/05/11 05:40:49;;;;;;;8.75;3.30;;;;;;;;;;4994260;28;20055;-72
2022/05/11 05:43:14;;;;;;;8.85;3.67;;;;;;;;;;4996139;28;20038;-72
2022/05/11 05:45:40;;;;;;;12.52;3.67;;;;;;;;;;4997353;28;20046;-72
2022/05/11 05:48:06;;;;;;;8.15;3.85;;;;;;;;;;4995601;28;20057;-72
2022/05/11 05:50:31;;;;;;;8.73;3.97;;;;;;;;;;4996412;28;20478;-72
2022/05/11 05:52:56;;;;;;;7.93;3.05;;;;;;;;;;4996632;28;20042;-72
2022/05/11 05:55:22;;;;;;;8.98;3.92;;;;;;;;;;4995275;28;20042;-72
2022/05/11 05:57:48;;;;;;;11.10;3.58;;;;;;;;;;5004766;28;20034;-72
2022/05/11 06:00:14;;;;;;;6.80;2.75;;;;;;;;;;5002342;28;20046;-72
2022/05/11 06:02:39;;;;;;;7.20;3.42;;;;;;;;;;5002639;28;20396;-72
2022/05/11 06:05:05;;;;;;;6.28;3.00;;;;;;;;;;5006610;28;20035;-72
2022/05/11 06:07:30;;;;;;;8.43;2.80;;;;;;;;;;5006102;28;20041;-72
2022/05/11 06:09:56;;;;;;;7.88;3.20;;;;;;;;;;5006244;28;20062;-72
2022/05/11 06:12:21;;;;;;;6.43;2.47;;;;;;;;;;5006991;28;20120;-72
2022/05/11 06:14:46;;;;;;;7.05;2.58;;;;;;;;;;5008880;28;20426;-72
2022/05/11 06:17:23;;;;;;;7.40;2.40;;;;;;;;;;5009109;28;20029;-73
2022/05/11 06:19:50;;;;;;;7.88;2.30;;;;;;;;;;5007167;28;20610;-73
2022/05/11 06:22:16;;;;;;;4.38;1.85;;;;;;;;;;5006509;28;20042;-72
2022/05/11 06:24:41;;;;;;;8.63;2.40;;;;;;;;;;5005681;28;20176;-72
2022/05/11 06:27:13;;;;;;;5.07;2.10;;;;;;;;;;5000761;28;20042;-72
2022/05/11 06:29:38;;;;;;;4.00;1.77;;;;;;;;;;5004122;28;20045;-72
2022/05/11 06:32:04;;;;;;;6.32;1.77;;;;;;;;;;5009167;28;20426;-72
2022/05/11 06:34:30;;;;;;;6.75;1.83;;;;;;;;;;5008804;28;20160;-72
2022/05/11 06:36:55;;;;;;;3.30;1.67;;;;;;;;;;5004338;28;20066;-72
2022/05/11 06:39:22;;;;;;;2.55;1.63;;;;;;;;;;4988962;28;20034;-72
2022/05/11 06:41:48;;;;;;;5.90;1.70;;;;;;;;;;4994596;28;20030;-72
2022/05/11 06:44:13;;;;;;;6.20;1.98;;;;;;;;;;5009589;28;20030;-72
2022/05/11 06:46:38;;;;;;;5.30;1.88;;;;;;;;;;5008971;28;20037;-73
2022/05/11 06:49:04;;;;;;;4.57;1.88;;;;;;;;;;4993324;28;20057;-72
2022/05/11 06:51:29;;;;;;;3.30;1.40;;;;;;;;;;4994913;28;20046;-72
2022/05/11 06:59:30;;;;;;;7.10;1.77;;;;;;;;;;5006127;28;20052;-72
2022/05/11 07:01:57;;;;;;;7.97;2.35;;;;;;;;;;5007846;28;20145;-72
2022/05/11 07:04:23;;;;;;;4.38;1.65;;;;;;;;;;4988885;28;20050;-72
2022/05/11 07:06:56;;;;;;;5.10;1.40;;;;;;;;;;5004157;28;20046;-72
2022/05/11 07:09:24;;;;;;;4.57;1.85;;;;;;;;;;4998491;28;20473;-72
2022/05/11 07:14:35;;;;;;;4.18;1.73;;;;;;;;;;5004650;28;20139;-72
2022/05/11 07:17:00;;;;;;;3.90;1.45;;;;;;;;;;4998371;28;20956;-72
2022/05/11 07:19:26;;;;;;;4.30;1.30;;;;;;;;;;5000245;28;20038;-72
2022/05/11 07:21:52;;;;;;;5.45;1.52;;;;;;;;;;5001256;28;20034;-72
2022/05/11 07:24:18;;;;;;;3.22;1.70;;;;;;;;;;5002794;28;20041;-72
2022/05/11 07:26:43;;;;;;;6.38;1.67;;;;;;;;;;5003248;28;20053;-72
2022/05/11 07:29:09;;;;;;;4.07;1.90;;;;;;;;;;5004775;28;20132;-72
2022/05/11 07:31:34;;;;;;;3.88;1.70;;;;;;;;;;5003121;28;20058;-72
2022/05/11 07:34:00;;;;;;;4.45;1.65;;;;;;;;;;5002222;28;20041;-72
2022/05/11 07:36:25;;;;;;;6.60;2.90;;;;;;;;;;5013862;28;20041;-72
2022/05/11 07:38:51;;;;;;;4.22;1.77;;;;;;;;;;5004140;28;20087;-72
2022/05/11 07:41:17;;;;;;;6.43;1.88;;;;;;;;;;5000192;28;20034;-72
2022/05/11 07:43:42;;;;;;;5.28;1.60;;;;;;;;;;5000049;28;20038;-72
2022/05/11 07:46:08;;;;;;;4.32;1.70;;;;;;;;;;5007328;28;20060;-72
2022/05/11 07:48:33;;;;;;;5.95;1.90;;;;;;;;;;5006374;28;20076;-72
2022/05/11 07:50:59;;;;;;;4.40;1.75;;;;;;;;;;5002657;28;20037;-72
2022/05/11 07:53:24;;;;;;;7.25;1.65;;;;;;;;;;5005544;28;20038;-72
2022/05/11 07:59:52;;;;;;;4.90;1.80;;;;;;;;;;5002133;28;20047;-72
2022/05/11 08:01:21;;;;;;;5.57;2.53;;;;;;;;;;4998811;28;20044;-73
2022/05/11 08:03:47;;;;;;;4.75;1.70;;;;;;;;;;4994661;28;20041;-72
2022/05/11 08:06:12;;;;;;;6.10;2.00;;;;;;;;;;4998233;28;20057;-72
2022/05/11 08:08:37;;;;;;;3.55;1.65;;;;;;;;;;5003405;28;20034;-73
2022/05/11 08:11:04;;;;;;;5.57;1.98;;;;;;;;;;5007606;28;20041;-72
2022/05/11 08:13:30;;;;;;;4.57;1.75;;;;;;;;;;5003663;28;20077;-72
2022/05/11 08:15:55;;;;;;;5.05;2.00;;;;;;;;;;4988858;28;20125;-71
2022/05/11 08:18:21;;;;;;;5.28;1.60;;;;;;;;;;4994886;28;20034;-71
2022/05/11 08:20:47;;;;;;;7.07;2.10;;;;;;;;;;5008051;28;20600;-71
2022/05/11 08:23:14;;;;;;;5.88;2.20;;;;;;;;;;5008373;28;20029;-72
2022/05/11 08:25:41;;;;;;;9.05;2.33;;;;;;;;;;4990699;28;20049;-72
2022/05/11 08:28:17;;;;;;;5.05;2.45;;;;;;;;;;4988447;28;20074;-72
2022/05/11 08:33:29;;;;;;;5.45;2.25;;;;;;;;;;5008210;28;20072;-71
2022/05/11 08:35:58;;;;;;;4.90;2.42;;;;;;;;;;5007361;28;20033;-71
2022/05/11 08:38:26;;;;;;;9.40;2.28;;;;;;;;;;5005855;28;20025;-71
2022/05/11 08:40:58;;;;;;;8.25;2.67;;;;;;;;;;4994463;28;20068;-71
2022/05/11 08:43:27;;;;;;;6.03;2.40;;;;;;;;;;4992077;28;20749;-71
2022/05/11 08:45:56;;;;;;;6.97;2.50;;;;;;;;;;5004898;28;20041;-72
2022/05/11 08:48:48;;;;;;;5.90;2.50;;;;;;;;;;5000885;28;20038;-71
2022/05/11 08:51:34;;;;;;;8.93;2.35;;;;;;;;;;4993914;28;20104;-72
2022/05/11 08:54:23;;;;;;;4.40;2.13;;;;;;;;;;4993134;28;20068;-71
2022/05/11 08:56:49;;;;;;;7.18;2.50;;;;;;;;;;4995015;28;20018;-71
2022/05/11 08:59:20;;;;;;;5.63;2.42;;;;;;;;;;4994839;28;20503;-71
2022/05/11 09:01:54;;;;;;;7.38;2.80;;;;;;;;;;4995124;28;20038;-71
2022/05/11 09:04:25;;;;;;;5.13;2.28;;;;;;;;;;4990565;28;20030;-71
2022/05/11 09:06:51;;;;;;;5.50;2.25;;;;;;;;;;4993631;28;20046;-71
2022/05/11 09:09:17;;;;;;;7.95;3.10;;;;;;;;;;4994985;28;20062;-71
2022/05/11 09:11:54;;;;;;;5.90;2.55;;;;;;;;;;4994939;28;20030;-71
2022/05/11 09:14:42;;;;;;;6.25;2.55;;;;;;;;;;4993476;28;20045;-71
2022/05/11 09:17:25;;;;;;;6.78;2.50;;;;;;;;;;4992165;28;20046;-70
2022/05/11 09:20:10;;;;;;;;;;;;;;;;;;4992456;28;20164;-71
2022/05/11 09:22:55;;;;;;;8.15;2.85;;;;;;;;;;4990515;28;19932;-71
2022/05/11 09:25:24;;;;;;;6.95;3.00;;;;;;;;;;4991059;28;20088;-71
2022/05/11 09:27:50;;;;;;;7.85;2.85;;;;;;;;;;5001075;28;20527;-71
2022/05/11 09:30:16;;;;;;;9.95;2.80;;;;;;;;;;4998105;28;20385;-70
2022/05/11 09:32:44;;;;;;;6.50;2.60;;;;;;;;;;4989407;28;20024;-71
2022/05/11 09:35:18;;;;;;;5.90;2.97;;;;;;;;;;4992422;28;20041;-71
2022/05/11 09:37:54;;;;;;;7.70;3.17;;;;;;;;;;4993013;28;20048;-71
2022/05/11 09:40:22;;;;;;;4.70;2.80;;;;;;;;;;4992747;28;20030;-71
2022/05/11 09:43:10;;;;;;;11.05;2.85;;;;;;;;;;4992461;28;20542;-70
2022/05/11 09:45:40;;;;;;;6.85;2.92;;;;;;;;;;4995080;28;20100;-71
2022/05/11 09:48:17;;;;;;;7.90;3.50;;;;;;;;;;4995729;28;20041;-70
2022/05/11 09:50:44;;;;;;;6.55;3.33;;;;;;;;;;5002046;28;20132;-72
2022/05/11 09:53:29;;;;;;;5.47;3.25;;;;;;;;;;5008913;28;20041;-71
2022/05/11 09:55:55;;;;;;;6.55;2.90;;;;;;;;;;4995159;28;20141;-72
2022/05/11 09:58:32;;;;;;;7.18;3.85;;;;;;;;;;4996816;28;20048;-71
2022/05/11 10:01:26;;;;;;;10.48;3.90;;;;;;;;;;5000006;28;20038;-73
2022/05/11 10:04:03;;;;;;;9.98;3.15;;;;;;;;;;4997478;28;20097;-72
2022/05/11 10:06:33;;;;;;;10.48;3.30;;;;;;;;;;4995731;28;20056;-72
2022/05/11 10:09:00;;;;;;;6.60;3.60;;;;;;;;;;5001239;28;20049;-72
2022/05/11 10:11:36;;;;;;;13.43;3.67;;;;;;;;;;5006173;28;20029;-72
2022/05/11 10:22:44;;;;;;;11.45;3.25;;;;;;;;;;5003883;28;20037;-72
2022/05/11 10:25:38;;;;;;;13.55;4.07;;;;;;;;;;5005013;28;20062;-72
2022/05/11 10:28:09;;;;;;;7.65;3.47;;;;;;;;;;4989192;28;20054;-72
2022/05/11 10:30:45;;;;;;;6.82;3.45;;;;;;;;;;4990932;28;20046;-72
2022/05/11 10:33:19;;;;;;;9.27;3.45;;;;;;;;;;5001594;28;20037;-72
2022/05/11 10:36:01;;;;;;;7.43;3.45;;;;;;;;;;4991736;28;20507;-72
2022/05/11 10:38:51;;;;;;;9.27;3.38;;;;;;;;;;4995996;28;20026;-73
2022/05/11 10:41:36;;;;;;;8.80;3.40;;;;;;;;;;5000531;28;20126;-72
2022/05/11 10:44:04;;;;;;;11.23;3.72;;;;;;;;;;5000143;28;20042;-71
2022/05/11 10:46:58;;;;;;;6.90;3.17;;;;;;;;;;5008631;28;20038;-72
2022/05/11 10:49:26;;;;;;;7.07;3.40;;;;;;;;;;5008282;28;20038;-72
2022/05/11 10:52:06;;;;;;;6.40;3.38;;;;;;;;;;5008308;28;20141;-73
2022/05/11 10:55:05;;;;;;;7.68;3.78;;;;;;;;;;5009402;28;20128;-73
2022/05/11 10:57:40;;;;;;;5.50;2.88;;;;;;;;;;4989030;28;20041;-73
2022/05/11 11:00:12;;;;;;;11.15;3.50;;;;;;;;;;4994094;28;20038;-73
2022/05/11 11:03:05;;;;;;;6.70;3.60;;;;;;;;;;4999959;28;20499;-73
2022/05/11 11:05:39;;;;;;;5.68;3.30;;;;;;;;;;5008902;28;20053;-73
2022/05/11 11:08:10;;;;;;;7.63;3.10;;;;;;;;;;5008641;28;20056;-73
2022/05/11 11:10:38;;;;;;;10.88;3.28;;;;;;;;;;5008428;28;20049;-74
2022/05/11 11:13:23;;;;;;;6.13;2.97;;;;;;;;;;5008498;28;20498;-74
2022/05/11 11:15:52;;;;;;;8.68;3.50;;;;;;;;;;5008478;28;20415;-73
2022/05/11 11:18:28;;;;;;;7.80;3.50;;;;;;;;;;5008332;28;20051;-73
2022/05/11 11:20:58;;;;;;;6.57;3.30;;;;;;;;;;5008269;28;20042;-73
2022/05/11 11:23:24;;;;;;;7.30;3.10;;;;;;;;;;5008894;28;20033;-74
2022/05/11 11:26:01;;;;;;;9.43;3.22;;;;;;;;;;5006713;28;20041;-73
2022/05/11 11:28:33;;;;;;;3.58;2.80;;;;;;;;;;5007519;28;20050;-74
2022/05/11 11:30:58;;;;;;;7.82;3.22;;;;;;;;;;5006482;28;20052;-74
2022/05/11 11:33:24;;;;;;;6.28;2.70;;;;;;;;;;5002520;28;20038;-73
2022/05/11 11:35:58;;;;;;;5.85;2.78;;;;;;;;;;5022716;28;20410;-73
2022/05/11 11:38:43;;;;;;;11.85;3.33;;;;;;;;;;5024060;28;20036;-74
2022/05/11 11:41:11;;;;;;;5.90;2.80;;;;;;;;;;5005733;28;20045;-73
2022/05/11 11:43:44;;;;;;;5.15;2.60;;;;;;;;;;5001543;28;20129;-73
2022/05/11 11:46:33;;;;;;;6.63;2.97;;;;;;;;;;4996934;28;20042;-73
2022/05/11 11:49:07;;;;;;;5.22;3.17;;;;;;;;;;4996738;28;20064;-73
2022/05/11 11:51:50;;;;;;;5.95;2.88;;;;;;;;;;5006264;28;20668;-73
2022/05/11 11:54:43;;;;;;;;;;;;;;;;;;5007144;28;20085;-73
2022/05/11 11:57:14;;;;;;;5.22;2.95;;;;;;;;;;5009615;28;19960;-73
2022/05/11 11:59:49;;;;;;;6.50;3.25;;;;;;;;;;4992506;28;20045;-73
2022/05/11 12:02:24;;;;;;;4.15;2.83;;;;;;;;;;5004842;28;20934;-73
2022/05/11 12:04:53;;;;;;;5.88;2.97;;;;;;;;;;5005532;28;20033;-73
2022/05/11 12:15:59;;;;;;;5.05;2.50;;;;;;;;;;4987480;28;20072;-73
2022/05/11 12:18:30;;;;;;;9.52;3.30;;;;;;;;;;4996602;28;20141;-73
2022/05/11 12:20:56;;;;;;;4.15;2.78;;;;;;;;;;4996056;28;20042;-72
2022/05/11 12:23:26;;;;;;;6.35;3.22;;;;;;;;;;4995308;28;20029;-73
2022/05/11 12:25:57;;;;;;;9.35;3.10;;;;;;;;;;4993872;28;20046;-73
2022/05/11 12:28:28;;;;;;;7.75;2.83;;;;;;;;;;4994940;28;20053;-73
2022/05/11 12:30:54;;;;;;;4.53;3.05;;;;;;;;;;5004034;28;20082;-74
2022/05/11 12:33:28;;;;;;;11.38;3.45;;;;;;;;;;5000882;28;20041;-72
2022/05/11 12:35:54;;;;;;;7.28;3.10;;;;;;;;;;4993661;28;20034;-73
2022/05/11 12:38:26;;;;;;;4.60;2.90;;;;;;;;;;4993703;28;20018;-74
2022/05/11 12:40:52;;;;;;;10.90;2.80;;;;;;;;;;4995829;28;20069;-72
2022/05/11 12:43:30;;;;;;;7.40;2.85;;;;;;;;;;5006990;28;20091;-73
2022/05/11 12:45:59;;;;;;;5.68;2.40;;;;;;;;;;4997861;28;20724;-74
2022/05/11 12:48:34;;;;;;;5.28;2.80;;;;;;;;;;4995556;28;20046;-73
2022/05/11 12:51:07;;;;;;;7.13;2.60;;;;;;;;;;4993936;28;20037;-73
2022/05/11 12:53:56;;;;;;;4.38;2.53;;;;;;;;;;4995760;28;20033;-71
2022/05/11 12:56:23;;;;;;;8.48;2.70;;;;;;;;;;4996550;28;20639;-71
2022/05/11 12:58:58;;;;;;;4.72;2.50;;;;;;;;;;4992995;28;20515;-70
2022/05/11 13:01:29;;;;;;;5.28;2.33;;;;;;;;;;4993990;28;20552;-71
2022/05/11 13:03:59;;;;;;;6.35;2.40;;;;;;;;;;4993240;28;20056;-71
2022/05/11 13:06:40;;;;;;;9.43;2.80;;;;;;;;;;4994818;28;20104;-71
2022/05/11 13:09:09;;;;;;;7.22;2.05;;;;;;;;;;4995242;28;20041;-70
2022/05/11 13:11:37;;;;;;;4.45;2.47;;;;;;;;;;4995052;28;20043;-70
2022/05/11 13:14:11;;;;;;;5.45;2.47;;;;;;;;;;4993535;28;20049;-68
2022/05/11 13:16:37;;;;;;;7.70;3.28;;;;;;;;;;4994866;28;20510;-67
2022/05/11 13:19:11;;;;;;;5.05;2.42;;;;;;;;;;4993940;28;20042;-67
2022/05/11 13:21:37;;;;;;;4.78;2.22;;;;;;;;;;4993505;28;20069;-68
2022/05/11 13:24:05;;;;;;;4.70;2.05;;;;;;;;;;4996634;28;20116;-68
2022/05/11 13:26:41;;;;;;;3.42;2.10;;;;;;;;;;4998858;28;20025;-68
2022/05/11 13:29:16;;;;;;;6.63;2.40;;;;;;;;;;4998375;28;20716;-67
2022/05/11 13:31:42;;;;;;;9.32;2.53;;;;;;;;;;4997825;28;20045;-67
2022/05/11 13:34:29;;;;;;;7.53;2.78;;;;;;;;;;4997836;28;20046;-68
2022/05/11 13:36:55;;;;;;;4.18;2.10;;;;;;;;;;4996767;28;20038;-67
2022/05/11 13:39:39;;;;;;;7.78;2.28;;;;;;;;;;5001394;28;20147;-68
2022/05/11 13:42:22;;;;;;;4.30;2.45;;;;;;;;;;4999200;28;20045;-70
2022/05/11 13:44:57;;;;;;;3.85;1.95;;;;;;;;;;4995252;28;20441;-70
2022/05/11 13:50:36;;;;;;;5.30;2.15;;;;;;;;;;5002542;28;20153;-70
2022/05/11 13:53:20;;;;;;;8.95;2.10;;;;;;;;;;5010268;28;20046;-70
2022/05/11 13:56:00;;;;;;;6.68;2.20;;;;;;;;;;5006172;28;20084;-71
2022/05/11 13:58:28;;;;;;;4.13;2.10;;;;;;;;;;4994640;28;20038;-70
2022/05/11 14:01:01;;;;;;;5.47;2.33;;;;;;;;;;5010542;28;20045;-70
2022/05/11 14:03:31;;;;;;;4.25;2.22;;;;;;;;;;5010608;28;20042;-71
2022/05/11 14:05:57;;;;;;;7.28;2.33;;;;;;;;;;4997553;28;20030;-72
2022/05/11 14:08:23;;;;;;;4.53;2.35;;;;;;;;;;4999837;28;20510;-72
2022/05/11 14:10:50;;;;;;;3.50;1.98;;;;;;;;;;5007873;28;20061;-72
2022/05/11 14:13:16;;;;;;;3.50;2.00;;;;;;;;;;5004481;28;20038;-71
2022/05/11 14:15:42;;;;;;;3.05;2.10;;;;;;;;;;4999017;28;20053;-72
2022/05/11 14:18:12;;;;;;;5.53;2.08;;;;;;;;;;4997565;28;20454;-72
2022/05/11 14:20:38;;;;;;;5.15;2.20;;;;;;;;;;5004230;28;20044;-72
2022/05/11 14:23:05;;;;;;;8.10;2.40;;;;;;;;;;4997819;28;20034;-71
2022/05/11 14:25:32;;;;;;;2.10;1.90;;;;;;;;;;5001261;28;20092;-71
2022/05/11 14:27:57;;;;;;;3.72;2.10;;;;;;;;;;5004928;28;20133;-71
2022/05/11 14:30:23;;;;;;;9.25;2.25;;;;;;;;;;5003687;28;20038;-71
2022/05/11 14:32:49;;;;;;;2.88;1.95;;;;;;;;;;5000808;28;20565;-71
2022/05/11 14:35:19;;;;;;;4.25;2.42;;;;;;;;;;5000789;28;21019;-71
2022/05/11 14:37:45;;;;;;;6.43;2.50;;;;;;;;;;4999775;28;20034;-70
2022/05/11 14:40:12;;;;;;;5.82;2.30;;;;;;;;;;5000863;28;20042;-73
2022/05/11 14:42:38;;;;;;;3.70;1.80;;;;;;;;;;5000525;28;20060;-70
2022/05/11 14:45:05;;;;;;;4.88;2.38;;;;;;;;;;4999873;28;20474;-73
2022/05/11 14:47:31;;;;;;;3.85;2.00;;;;;;;;;;5001033;28;20037;-72
2022/05/11 14:49:58;;;;;;;4.68;1.98;;;;;;;;;;4999765;28;20074;-73
2022/05/11 14:52:24;;;;;;;3.33;2.25;;;;;;;;;;5000689;28;20040;-73
2022/05/11 14:54:49;;;;;;;6.13;2.10;;;;;;;;;;5019689;28;20034;-73
2022/05/11 15:02:43;;;;;;;5.82;2.20;;;;;;;;;;5000952;28;20087;-73
2022/05/11 15:05:14;;;;;;;8.20;2.10;;;;;;;;;;4999071;28;20124;-73
2022/05/11 15:07:39;;;;;;;6.72;2.10;;;;;;;;;;4997318;28;20026;-73
2022/05/11 15:10:05;;;;;;;4.75;2.38;;;;;;;;;;4998750;28;20099;-73
2022/05/11 15:15:15;;;;;;;5.05;2.30;;;;;;;;;;5003692;28;20121;-73
2022/05/11 15:17:41;;;;;;;3.33;2.30;;;;;;;;;;4999245;28;20105;-73
2022/05/11 15:20:09;;;;;;;6.57;2.60;;;;;;;;;;5009750;28;20052;-73
2022/05/11 15:22:36;;;;;;;3.95;2.15;;;;;;;;;;5004291;28;20030;-73
2022/05/11 15:25:02;;;;;;;12.88;2.70;;;;;;;;;;5004516;28;20029;-73
2022/05/11 15:27:27;;;;;;;3.58;2.50;;;;;;;;;;5002741;28;20047;-73
2022/05/11 15:29:53;;;;;;;6.75;2.50;;;;;;;;;;4992512;28;20053;-73
2022/05/11 15:32:23;;;;;;;6.15;2.10;;;;;;;;;;4998535;28;20025;-71
2022/05/11 15:34:48;;;;;;;3.58;2.05;;;;;;;;;;5007127;28;20121;-71
2022/05/11 15:37:14;;;;;;;4.55;2.20;;;;;;;;;;5000273;28;20105;-72
2022/05/11 15:39:41;;;;;;;3.60;2.38;;;;;;;;;;5006365;28;20040;-72
2022/05/11 15:42:09;;;;;;;3.53;2.20;;;;;;;;;;4990185;28;20044;-72
2022/05/11 15:44:37;;;;;;;4.15;2.28;;;;;;;;;;4988619;28;20499;-72
2022/05/11 15:47:04;;;;;;;4.18;2.15;;;;;;;;;;4992041;28;20042;-72
2022/05/11 15:49:30;;;;;;;2.80;1.90;;;;;;;;;;4993038;28;20070;-72
2022/05/11 15:51:55;;;;;;;5.35;2.30;;;;;;;;;;5000971;28;20412;-72